sensor_id;sensor_type;location;lat;lon;timestamp;P1;durP1;ratioP1;P2;durP2;ratioP2
15667;SDS011;7934;48.710;9.024;2023-06-22T00:01:33;11.02;;;9.27;;
15667;SDS011;7934;48.710;9.024;2023-06-22T00:04:00;9.55;;;8.70;;
15667;SDS011;7934;48.710;9.024;2023-06-22T00:06:27;10.52;;;8.68;;
15667;SDS011;7934;48.710;9.024;2023-06-22T00:08:54;12.10;;;8.95;;
15667;SDS011;7934;48.710;9.024;2023-06-22T00:11:21;11.10;;;9.00;;
15667;SDS011;7934;48.710;9.024;2023-06-22T00:13:49;10.43;;;9.20;;
15667;SDS011;7934;48.710;9.024;2023-06-22T00:16:16;10.38;;;9.10;;
15667;SDS011;7934;48.710;9.024;2023-06-22T00:18:45;10.70;;;9.68;;
15667;SDS011;7934;48.710;9.024;2023-06-22T00:21:13;11.20;;;9.48;;
15667;SDS011;7934;48.710;9.024;2023-06-22T00:23:41;13.07;;;9.90;;
15667;SDS011;7934;48.710;9.024;2023-06-22T00:26:08;12.20;;;9.70;;
15667;SDS011;7934;48.710;9.024;2023-06-22T00:28:36;12.55;;;8.90;;
15667;SDS011;7934;48.710;9.024;2023-06-22T00:31:03;10.90;;;9.32;;
15667;SDS011;7934;48.710;9.024;2023-06-22T00:33:30;12.98;;;9.80;;
15667;SDS011;7934;48.710;9.024;2023-06-22T00:35:59;11.38;;;9.27;;
15667;SDS011;7934;48.710;9.024;2023-06-22T00:38:28;13.43;;;9.90;;
15667;SDS011;7934;48.710;9.024;2023-06-22T00:40:55;11.30;;;10.13;;
15667;SDS011;7934;48.710;9.024;2023-06-22T00:43:22;11.02;;;9.95;;
15667;SDS011;7934;48.710;9.024;2023-06-22T00:45:49;11.20;;;10.10;;
15667;SDS011;7934;48.710;9.024;2023-06-22T00:48:16;12.25;;;9.30;;
15667;SDS011;7934;48.710;9.024;2023-06-22T00:50:44;11.02;;;9.70;;
15667;SDS011;7934;48.710;9.024;2023-06-22T00:53:16;12.10;;;9.45;;
15667;SDS011;7934;48.710;9.024;2023-06-22T00:55:44;10.77;;;9.52;;
15667;SDS011;7934;48.710;9.024;2023-06-22T00:58:12;13.88;;;10.10;;
15667;SDS011;7934;48.710;9.024;2023-06-22T01:00:40;10.32;;;9.23;;
15667;SDS011;7934;48.710;9.024;2023-06-22T01:03:07;11.77;;;9.87;;
15667;SDS011;7934;48.710;9.024;2023-06-22T01:05:35;10.07;;;9.00;;
15667;SDS011;7934;48.710;9.024;2023-06-22T01:08:05;12.35;;;9.25;;
15667;SDS011;7934;48.710;9.024;2023-06-22T01:10:36;10.00;;;8.93;;
15667;SDS011;7934;48.710;9.024;2023-06-22T01:13:07;10.30;;;8.82;;
15667;SDS011;7934;48.710;9.024;2023-06-22T01:15:36;9.85;;;8.80;;
15667;SDS011;7934;48.710;9.024;2023-06-22T01:18:05;10.07;;;8.82;;
15667;SDS011;7934;48.710;9.024;2023-06-22T01:20:32;11.55;;;9.25;;
15667;SDS011;7934;48.710;9.024;2023-06-22T01:23:07;10.68;;;9.57;;
15667;SDS011;7934;48.710;9.024;2023-06-22T01:25:39;9.40;;;8.48;;
15667;SDS011;7934;48.710;9.024;2023-06-22T01:28:13;11.63;;;9.27;;
15667;SDS011;7934;48.710;9.024;2023-06-22T01:30:46;10.80;;;9.35;;
15667;SDS011;7934;48.710;9.024;2023-06-22T01:33:15;10.25;;;8.95;;
15667;SDS011;7934;48.710;9.024;2023-06-22T01:35:42;9.93;;;8.85;;
15667;SDS011;7934;48.710;9.024;2023-06-22T01:38:10;12.02;;;9.40;;
15667;SDS011;7934;48.710;9.024;2023-06-22T01:40:37;11.75;;;9.82;;
15667;SDS011;7934;48.710;9.024;2023-06-22T01:43:04;11.35;;;9.60;;
15667;SDS011;7934;48.710;9.024;2023-06-22T01:45:32;10.63;;;9.50;;
15667;SDS011;7934;48.710;9.024;2023-06-22T01:48:00;11.88;;;9.70;;
15667;SDS011;7934;48.710;9.024;2023-06-22T01:50:28;15.10;;;10.38;;
15667;SDS011;7934;48.710;9.024;2023-06-22T01:52:55;10.10;;;9.23;;
15667;SDS011;7934;48.710;9.024;2023-06-22T01:55:22;11.23;;;9.27;;
15667;SDS011;7934;48.710;9.024;2023-06-22T01:57:49;12.15;;;10.75;;
15667;SDS011;7934;48.710;9.024;2023-06-22T02:00:18;13.48;;;9.85;;
15667;SDS011;7934;48.710;9.024;2023-06-22T02:02:49;12.30;;;10.50;;
15667;SDS011;7934;48.710;9.024;2023-06-22T02:05:20;13.98;;;10.20;;
15667;SDS011;7934;48.710;9.024;2023-06-22T02:07:49;11.15;;;9.95;;
15667;SDS011;7934;48.710;9.024;2023-06-22T02:10:19;12.48;;;10.63;;
15667;SDS011;7934;48.710;9.024;2023-06-22T02:12:47;11.38;;;9.70;;
15667;SDS011;7934;48.710;9.024;2023-06-22T02:15:15;11.67;;;10.40;;
15667;SDS011;7934;48.710;9.024;2023-06-22T02:17:42;10.75;;;9.70;;
15667;SDS011;7934;48.710;9.024;2023-06-22T02:20:11;12.93;;;9.55;;
15667;SDS011;7934;48.710;9.024;2023-06-22T02:22:40;12.70;;;10.57;;
15667;SDS011;7934;48.710;9.024;2023-06-22T02:25:07;11.02;;;9.93;;
15667;SDS011;7934;48.710;9.024;2023-06-22T02:27:35;11.98;;;10.18;;
15667;SDS011;7934;48.710;9.024;2023-06-22T02:30:05;13.60;;;10.30;;
15667;SDS011;7934;48.710;9.024;2023-06-22T02:32:33;12.55;;;10.15;;
15667;SDS011;7934;48.710;9.024;2023-06-22T02:35:00;11.50;;;9.75;;
15667;SDS011;7934;48.710;9.024;2023-06-22T02:37:29;13.32;;;10.20;;
15667;SDS011;7934;48.710;9.024;2023-06-22T02:39:57;12.10;;;10.68;;
15667;SDS011;7934;48.710;9.024;2023-06-22T02:42:24;12.63;;;10.60;;
15667;SDS011;7934;48.710;9.024;2023-06-22T02:44:52;11.35;;;10.10;;
15667;SDS011;7934;48.710;9.024;2023-06-22T02:47:19;13.90;;;10.65;;
15667;SDS011;7934;48.710;9.024;2023-06-22T02:49:46;13.40;;;10.35;;
15667;SDS011;7934;48.710;9.024;2023-06-22T02:52:13;13.20;;;11.13;;
15667;SDS011;7934;48.710;9.024;2023-06-22T02:54:40;12.27;;;11.00;;
15667;SDS011;7934;48.710;9.024;2023-06-22T02:57:09;13.02;;;10.60;;
15667;SDS011;7934;48.710;9.024;2023-06-22T02:59:38;10.70;;;9.70;;
15667;SDS011;7934;48.710;9.024;2023-06-22T03:02:05;12.65;;;10.73;;
15667;SDS011;7934;48.710;9.024;2023-06-22T03:04:33;12.70;;;10.40;;
15667;SDS011;7934;48.710;9.024;2023-06-22T03:07:01;12.70;;;10.32;;
15667;SDS011;7934;48.710;9.024;2023-06-22T03:09:28;11.73;;;10.57;;
15667;SDS011;7934;48.710;9.024;2023-06-22T03:11:55;12.00;;;10.80;;
15667;SDS011;7934;48.710;9.024;2023-06-22T03:14:24;12.05;;;10.43;;
15667;SDS011;7934;48.710;9.024;2023-06-22T03:16:51;12.38;;;11.10;;
15667;SDS011;7934;48.710;9.024;2023-06-22T03:19:18;12.45;;;11.18;;
15667;SDS011;7934;48.710;9.024;2023-06-22T03:21:46;11.20;;;10.10;;
15667;SDS011;7934;48.710;9.024;2023-06-22T03:24:13;12.43;;;10.93;;
15667;SDS011;7934;48.710;9.024;2023-06-22T03:26:40;11.15;;;9.93;;
15667;SDS011;7934;48.710;9.024;2023-06-22T03:29:11;12.77;;;10.40;;
15667;SDS011;7934;48.710;9.024;2023-06-22T03:31:40;11.73;;;9.60;;
15667;SDS011;7934;48.710;9.024;2023-06-22T03:34:07;11.45;;;10.20;;
15667;SDS011;7934;48.710;9.024;2023-06-22T03:36:34;12.20;;;11.00;;
15667;SDS011;7934;48.710;9.024;2023-06-22T03:39:01;12.65;;;11.35;;
15667;SDS011;7934;48.710;9.024;2023-06-22T03:41:28;13.13;;;10.73;;
15667;SDS011;7934;48.710;9.024;2023-06-22T03:43:55;11.73;;;10.60;;
15667;SDS011;7934;48.710;9.024;2023-06-22T03:46:23;13.40;;;11.45;;
15667;SDS011;7934;48.710;9.024;2023-06-22T03:48:52;15.25;;;10.88;;
15667;SDS011;7934;48.710;9.024;2023-06-22T03:51:19;13.15;;;11.00;;
15667;SDS011;7934;48.710;9.024;2023-06-22T03:53:46;11.85;;;10.75;;
15667;SDS011;7934;48.710;9.024;2023-06-22T03:56:14;13.48;;;10.50;;
15667;SDS011;7934;48.710;9.024;2023-06-22T03:58:45;11.95;;;10.70;;
15667;SDS011;7934;48.710;9.024;2023-06-22T04:01:12;12.00;;;10.75;;
15667;SDS011;7934;48.710;9.024;2023-06-22T04:03:42;14.50;;;9.93;;
15667;SDS011;7934;48.710;9.024;2023-06-22T04:06:10;11.38;;;10.02;;
15667;SDS011;7934;48.710;9.024;2023-06-22T04:08:38;13.48;;;10.75;;
15667;SDS011;7934;48.710;9.024;2023-06-22T04:11:05;14.05;;;10.73;;
15667;SDS011;7934;48.710;9.024;2023-06-22T04:13:33;13.50;;;10.43;;
15667;SDS011;7934;48.710;9.024;2023-06-22T04:16:00;11.77;;;10.57;;
15667;SDS011;7934;48.710;9.024;2023-06-22T04:18:27;11.55;;;10.38;;
15667;SDS011;7934;48.710;9.024;2023-06-22T04:20:54;11.33;;;10.13;;
15667;SDS011;7934;48.710;9.024;2023-06-22T04:23:23;11.32;;;10.13;;
15667;SDS011;7934;48.710;9.024;2023-06-22T04:25:50;11.68;;;10.07;;
15667;SDS011;7934;48.710;9.024;2023-06-22T04:28:17;10.40;;;9.05;;
15667;SDS011;7934;48.710;9.024;2023-06-22T04:30:44;13.15;;;10.43;;
15667;SDS011;7934;48.710;9.024;2023-06-22T04:33:12;12.82;;;10.82;;
15667;SDS011;7934;48.710;9.024;2023-06-22T04:35:39;10.77;;;9.70;;
15667;SDS011;7934;48.710;9.024;2023-06-22T04:38:07;11.30;;;10.10;;
15667;SDS011;7934;48.710;9.024;2023-06-22T04:40:36;11.45;;;10.25;;
15667;SDS011;7934;48.710;9.024;2023-06-22T04:43:04;10.00;;;9.00;;
15667;SDS011;7934;48.710;9.024;2023-06-22T04:45:31;10.95;;;8.57;;
15667;SDS011;7934;48.710;9.024;2023-06-22T04:47:58;10.57;;;8.98;;
15667;SDS011;7934;48.710;9.024;2023-06-22T04:50:25;10.20;;;9.13;;
15667;SDS011;7934;48.710;9.024;2023-06-22T04:52:53;9.50;;;8.55;;
15667;SDS011;7934;48.710;9.024;2023-06-22T04:55:20;11.55;;;8.77;;
15667;SDS011;7934;48.710;9.024;2023-06-22T04:57:48;9.70;;;8.63;;
15667;SDS011;7934;48.710;9.024;2023-06-22T05:00:16;10.43;;;8.52;;
15667;SDS011;7934;48.710;9.024;2023-06-22T05:02:45;10.27;;;8.45;;
15667;SDS011;7934;48.710;9.024;2023-06-22T05:05:13;9.80;;;8.80;;
15667;SDS011;7934;48.710;9.024;2023-06-22T05:07:41;11.27;;;8.73;;
15667;SDS011;7934;48.710;9.024;2023-06-22T05:10:09;9.52;;;8.48;;
15667;SDS011;7934;48.710;9.024;2023-06-22T05:12:37;8.98;;;8.00;;
15667;SDS011;7934;48.710;9.024;2023-06-22T05:15:06;8.80;;;7.88;;
15667;SDS011;7934;48.710;9.024;2023-06-22T05:17:34;10.35;;;7.63;;
15667;SDS011;7934;48.710;9.024;2023-06-22T05:20:01;9.25;;;7.50;;
15667;SDS011;7934;48.710;9.024;2023-06-22T05:22:31;11.63;;;7.30;;
15667;SDS011;7934;48.710;9.024;2023-06-22T05:24:58;7.50;;;6.72;;
15667;SDS011;7934;48.710;9.024;2023-06-22T05:27:25;8.70;;;7.30;;
15667;SDS011;7934;48.710;9.024;2023-06-22T05:29:52;7.50;;;6.73;;
15667;SDS011;7934;48.710;9.024;2023-06-22T05:32:21;8.50;;;6.72;;
15667;SDS011;7934;48.710;9.024;2023-06-22T05:34:48;9.82;;;6.38;;
15667;SDS011;7934;48.710;9.024;2023-06-22T05:37:15;9.15;;;6.80;;
15667;SDS011;7934;48.710;9.024;2023-06-22T05:39:42;8.87;;;6.77;;
15667;SDS011;7934;48.710;9.024;2023-06-22T05:42:09;8.05;;;6.43;;
15667;SDS011;7934;48.710;9.024;2023-06-22T05:44:37;7.05;;;6.28;;
15667;SDS011;7934;48.710;9.024;2023-06-22T05:47:05;7.85;;;6.60;;
15667;SDS011;7934;48.710;9.024;2023-06-22T05:49:34;9.88;;;6.53;;
15667;SDS011;7934;48.710;9.024;2023-06-22T05:52:01;7.00;;;6.20;;
15667;SDS011;7934;48.710;9.024;2023-06-22T05:54:28;7.88;;;6.20;;
15667;SDS011;7934;48.710;9.024;2023-06-22T05:56:55;7.38;;;6.05;;
15667;SDS011;7934;48.710;9.024;2023-06-22T05:59:22;8.03;;;6.20;;
15667;SDS011;7934;48.710;9.024;2023-06-22T06:01:50;7.05;;;6.25;;
15667;SDS011;7934;48.710;9.024;2023-06-22T06:04:17;6.82;;;6.15;;
15667;SDS011;7934;48.710;9.024;2023-06-22T06:06:46;6.43;;;5.70;;
15667;SDS011;7934;48.710;9.024;2023-06-22T06:09:13;8.63;;;5.68;;
15667;SDS011;7934;48.710;9.024;2023-06-22T06:11:40;7.15;;;5.97;;
15667;SDS011;7934;48.710;9.024;2023-06-22T06:14:07;6.25;;;5.65;;
15667;SDS011;7934;48.710;9.024;2023-06-22T06:16:34;9.60;;;5.35;;
15667;SDS011;7934;48.710;9.024;2023-06-22T06:19:01;6.43;;;5.03;;
15667;SDS011;7934;48.710;9.024;2023-06-22T06:21:29;9.18;;;5.70;;
15667;SDS011;7934;48.710;9.024;2023-06-22T06:23:57;6.57;;;5.60;;
15667;SDS011;7934;48.710;9.024;2023-06-22T06:26:25;6.72;;;5.55;;
15667;SDS011;7934;48.710;9.024;2023-06-22T06:28:55;7.03;;;5.90;;
15667;SDS011;7934;48.710;9.024;2023-06-22T06:31:22;8.18;;;5.75;;
15667;SDS011;7934;48.710;9.024;2023-06-22T06:33:49;9.75;;;6.22;;
15667;SDS011;7934;48.710;9.024;2023-06-22T06:36:16;6.30;;;5.65;;
15667;SDS011;7934;48.710;9.024;2023-06-22T06:38:44;7.68;;;5.50;;
15667;SDS011;7934;48.710;9.024;2023-06-22T06:41:13;6.20;;;5.10;;
15667;SDS011;7934;48.710;9.024;2023-06-22T06:43:40;7.72;;;5.75;;
15667;SDS011;7934;48.710;9.024;2023-06-22T06:46:08;8.32;;;5.28;;
15667;SDS011;7934;48.710;9.024;2023-06-22T06:48:35;6.32;;;5.38;;
15667;SDS011;7934;48.710;9.024;2023-06-22T06:51:03;6.07;;;5.30;;
15667;SDS011;7934;48.710;9.024;2023-06-22T06:53:30;7.77;;;5.40;;
15667;SDS011;7934;48.710;9.024;2023-06-22T06:55:57;6.40;;;5.03;;
15667;SDS011;7934;48.710;9.024;2023-06-22T06:58:26;7.93;;;5.60;;
15667;SDS011;7934;48.710;9.024;2023-06-22T07:00:53;5.63;;;5.13;;
15667;SDS011;7934;48.710;9.024;2023-06-22T07:03:20;8.68;;;5.22;;
15667;SDS011;7934;48.710;9.024;2023-06-22T07:05:48;7.35;;;5.40;;
15667;SDS011;7934;48.710;9.024;2023-06-22T07:08:15;7.57;;;5.18;;
15667;SDS011;7934;48.710;9.024;2023-06-22T07:10:42;6.78;;;5.30;;
15667;SDS011;7934;48.710;9.024;2023-06-22T07:13:09;7.60;;;5.50;;
15667;SDS011;7934;48.710;9.024;2023-06-22T07:15:38;6.80;;;4.83;;
15667;SDS011;7934;48.710;9.024;2023-06-22T07:18:05;10.10;;;5.53;;
15667;SDS011;7934;48.710;9.024;2023-06-22T07:20:32;9.50;;;5.00;;
15667;SDS011;7934;48.710;9.024;2023-06-22T07:22:59;8.02;;;5.10;;
15667;SDS011;7934;48.710;9.024;2023-06-22T07:25:26;6.32;;;4.80;;
15667;SDS011;7934;48.710;9.024;2023-06-22T07:27:58;9.47;;;5.30;;
15667;SDS011;7934;48.710;9.024;2023-06-22T07:30:26;8.18;;;5.45;;
15667;SDS011;7934;48.710;9.024;2023-06-22T07:32:54;8.50;;;4.88;;
15667;SDS011;7934;48.710;9.024;2023-06-22T07:35:22;7.30;;;5.30;;
15667;SDS011;7934;48.710;9.024;2023-06-22T07:37:49;8.82;;;5.35;;
15667;SDS011;7934;48.710;9.024;2023-06-22T07:40:16;6.97;;;5.55;;
15667;SDS011;7934;48.710;9.024;2023-06-22T07:42:44;8.15;;;5.40;;
15667;SDS011;7934;48.710;9.024;2023-06-22T07:45:13;8.52;;;5.80;;
15667;SDS011;7934;48.710;9.024;2023-06-22T07:47:40;8.60;;;5.30;;
15667;SDS011;7934;48.710;9.024;2023-06-22T07:50:09;8.85;;;5.28;;
15667;SDS011;7934;48.710;9.024;2023-06-22T07:52:37;9.48;;;5.43;;
15667;SDS011;7934;48.710;9.024;2023-06-22T07:55:04;8.63;;;5.70;;
15667;SDS011;7934;48.710;9.024;2023-06-22T07:57:31;9.45;;;5.47;;
15667;SDS011;7934;48.710;9.024;2023-06-22T07:59:59;11.18;;;5.70;;
15667;SDS011;7934;48.710;9.024;2023-06-22T08:02:29;10.73;;;5.80;;
15667;SDS011;7934;48.710;9.024;2023-06-22T08:04:56;9.57;;;5.78;;
15667;SDS011;7934;48.710;9.024;2023-06-22T08:07:24;8.68;;;5.50;;
15667;SDS011;7934;48.710;9.024;2023-06-22T08:09:51;11.50;;;5.80;;
15667;SDS011;7934;48.710;9.024;2023-06-22T08:12:19;12.68;;;5.40;;
15667;SDS011;7934;48.710;9.024;2023-06-22T08:14:46;7.80;;;5.22;;
15667;SDS011;7934;48.710;9.024;2023-06-22T08:17:13;8.77;;;5.40;;
15667;SDS011;7934;48.710;9.024;2023-06-22T08:19:40;9.57;;;5.50;;
15667;SDS011;7934;48.710;9.024;2023-06-22T08:22:07;9.55;;;5.43;;
15667;SDS011;7934;48.710;9.024;2023-06-22T08:24:36;9.30;;;5.43;;
15667;SDS011;7934;48.710;9.024;2023-06-22T08:27:03;9.70;;;5.67;;
15667;SDS011;7934;48.710;9.024;2023-06-22T08:29:34;10.35;;;5.70;;
15667;SDS011;7934;48.710;9.024;2023-06-22T08:32:02;9.03;;;5.70;;
15667;SDS011;7934;48.710;9.024;2023-06-22T08:34:29;10.23;;;6.15;;
15667;SDS011;7934;48.710;9.024;2023-06-22T08:36:56;6.35;;;5.35;;
15667;SDS011;7934;48.710;9.024;2023-06-22T08:39:23;12.05;;;6.15;;
15667;SDS011;7934;48.710;9.024;2023-06-22T08:41:52;9.68;;;6.05;;
15667;SDS011;7934;48.710;9.024;2023-06-22T08:44:19;9.90;;;5.95;;
15667;SDS011;7934;48.710;9.024;2023-06-22T08:46:46;10.38;;;6.00;;
15667;SDS011;7934;48.710;9.024;2023-06-22T08:49:13;8.10;;;6.20;;
15667;SDS011;7934;48.710;9.024;2023-06-22T08:51:41;8.90;;;5.55;;
15667;SDS011;7934;48.710;9.024;2023-06-22T08:54:09;10.63;;;5.93;;
15667;SDS011;7934;48.710;9.024;2023-06-22T08:56:36;9.80;;;6.30;;
15667;SDS011;7934;48.710;9.024;2023-06-22T08:59:05;11.68;;;5.75;;
15667;SDS011;7934;48.710;9.024;2023-06-22T09:01:32;11.73;;;5.93;;
15667;SDS011;7934;48.710;9.024;2023-06-22T09:03:59;10.50;;;6.05;;
15667;SDS011;7934;48.710;9.024;2023-06-22T09:06:27;9.30;;;5.80;;
15667;SDS011;7934;48.710;9.024;2023-06-22T09:08:56;11.52;;;6.22;;
15667;SDS011;7934;48.710;9.024;2023-06-22T09:11:24;9.27;;;6.30;;
15667;SDS011;7934;48.710;9.024;2023-06-22T09:13:51;11.13;;;6.30;;
15667;SDS011;7934;48.710;9.024;2023-06-22T09:16:20;12.63;;;6.05;;
15667;SDS011;7934;48.710;9.024;2023-06-22T09:18:47;9.15;;;6.35;;
15667;SDS011;7934;48.710;9.024;2023-06-22T09:21:14;8.25;;;6.03;;
15667;SDS011;7934;48.710;9.024;2023-06-22T09:23:41;9.82;;;5.88;;
15667;SDS011;7934;48.710;9.024;2023-06-22T09:26:10;12.32;;;6.30;;
15667;SDS011;7934;48.710;9.024;2023-06-22T09:28:37;9.50;;;5.75;;
15667;SDS011;7934;48.710;9.024;2023-06-22T09:31:04;10.85;;;5.63;;
15667;SDS011;7934;48.710;9.024;2023-06-22T09:33:33;9.52;;;5.97;;
15667;SDS011;7934;48.710;9.024;2023-06-22T09:36:00;10.73;;;5.93;;
15667;SDS011;7934;48.710;9.024;2023-06-22T09:38:27;14.30;;;5.78;;
15667;SDS011;7934;48.710;9.024;2023-06-22T09:40:54;12.07;;;6.03;;
15667;SDS011;7934;48.710;9.024;2023-06-22T09:43:21;11.23;;;6.15;;
15667;SDS011;7934;48.710;9.024;2023-06-22T09:45:48;9.43;;;5.80;;
15667;SDS011;7934;48.710;9.024;2023-06-22T09:48:16;10.32;;;5.68;;
15667;SDS011;7934;48.710;9.024;2023-06-22T09:50:44;12.73;;;6.18;;
15667;SDS011;7934;48.710;9.024;2023-06-22T09:53:11;10.03;;;6.37;;
15667;SDS011;7934;48.710;9.024;2023-06-22T09:55:38;12.80;;;6.20;;
15667;SDS011;7934;48.710;9.024;2023-06-22T09:58:05;13.53;;;6.47;;
15667;SDS011;7934;48.710;9.024;2023-06-22T10:00:33;14.45;;;5.85;;
15667;SDS011;7934;48.710;9.024;2023-06-22T10:03:01;9.57;;;5.93;;
15667;SDS011;7934;48.710;9.024;2023-06-22T10:05:28;12.93;;;6.33;;
15667;SDS011;7934;48.710;9.024;2023-06-22T10:07:56;8.13;;;6.13;;
15667;SDS011;7934;48.710;9.024;2023-06-22T10:10:23;10.90;;;6.80;;
15667;SDS011;7934;48.710;9.024;2023-06-22T10:12:54;10.80;;;5.80;;
15667;SDS011;7934;48.710;9.024;2023-06-22T10:15:21;11.77;;;5.93;;
15667;SDS011;7934;48.710;9.024;2023-06-22T10:17:49;12.65;;;6.75;;
15667;SDS011;7934;48.710;9.024;2023-06-22T10:20:16;13.30;;;6.67;;
15667;SDS011;7934;48.710;9.024;2023-06-22T10:22:44;11.07;;;6.70;;
15667;SDS011;7934;48.710;9.024;2023-06-22T10:25:12;8.93;;;5.95;;
15667;SDS011;7934;48.710;9.024;2023-06-22T10:27:40;11.85;;;6.40;;
15667;SDS011;7934;48.710;9.024;2023-06-22T10:30:07;10.40;;;6.10;;
15667;SDS011;7934;48.710;9.024;2023-06-22T10:32:35;12.75;;;6.53;;
15667;SDS011;7934;48.710;9.024;2023-06-22T10:35:02;13.23;;;5.97;;
15667;SDS011;7934;48.710;9.024;2023-06-22T10:37:29;10.63;;;6.22;;
15667;SDS011;7934;48.710;9.024;2023-06-22T10:39:56;11.82;;;6.18;;
15667;SDS011;7934;48.710;9.024;2023-06-22T10:42:25;13.38;;;6.80;;
15667;SDS011;7934;48.710;9.024;2023-06-22T10:44:52;10.83;;;6.43;;
15667;SDS011;7934;48.710;9.024;2023-06-22T10:47:19;9.63;;;6.63;;
15667;SDS011;7934;48.710;9.024;2023-06-22T10:49:47;11.20;;;5.70;;
15667;SDS011;7934;48.710;9.024;2023-06-22T10:52:14;14.67;;;6.43;;
15667;SDS011;7934;48.710;9.024;2023-06-22T10:54:41;12.33;;;6.40;;
15667;SDS011;7934;48.710;9.024;2023-06-22T10:57:08;12.07;;;6.55;;
15667;SDS011;7934;48.710;9.024;2023-06-22T10:59:36;9.10;;;6.15;;
15667;SDS011;7934;48.710;9.024;2023-06-22T11:02:04;10.50;;;6.20;;
15667;SDS011;7934;48.710;9.024;2023-06-22T11:04:31;9.93;;;6.27;;
15667;SDS011;7934;48.710;9.024;2023-06-22T11:06:59;10.50;;;6.20;;
15667;SDS011;7934;48.710;9.024;2023-06-22T11:09:26;10.70;;;6.45;;
15667;SDS011;7934;48.710;9.024;2023-06-22T11:11:53;11.85;;;6.00;;
15667;SDS011;7934;48.710;9.024;2023-06-22T11:14:21;13.45;;;6.65;;
15667;SDS011;7934;48.710;9.024;2023-06-22T11:16:49;10.00;;;6.43;;
15667;SDS011;7934;48.710;9.024;2023-06-22T11:19:17;11.88;;;6.13;;
15667;SDS011;7934;48.710;9.024;2023-06-22T11:21:44;13.68;;;7.13;;
15667;SDS011;7934;48.710;9.024;2023-06-22T11:24:11;11.40;;;6.20;;
15667;SDS011;7934;48.710;9.024;2023-06-22T11:26:38;12.70;;;6.20;;
15667;SDS011;7934;48.710;9.024;2023-06-22T11:29:05;9.43;;;6.15;;
15667;SDS011;7934;48.710;9.024;2023-06-22T11:31:33;12.45;;;6.97;;
15667;SDS011;7934;48.710;9.024;2023-06-22T11:34:02;10.18;;;6.57;;
15667;SDS011;7934;48.710;9.024;2023-06-22T11:36:29;10.90;;;6.30;;
15667;SDS011;7934;48.710;9.024;2023-06-22T11:38:58;10.25;;;6.18;;
15667;SDS011;7934;48.710;9.024;2023-06-22T11:41:25;11.13;;;6.55;;
15667;SDS011;7934;48.710;9.024;2023-06-22T11:43:52;14.43;;;7.03;;
15667;SDS011;7934;48.710;9.024;2023-06-22T11:46:19;11.77;;;6.18;;
15667;SDS011;7934;48.710;9.024;2023-06-22T11:48:46;13.32;;;6.80;;
15667;SDS011;7934;48.710;9.024;2023-06-22T11:51:15;9.75;;;6.35;;
15667;SDS011;7934;48.710;9.024;2023-06-22T11:53:42;9.57;;;6.47;;
15667;SDS011;7934;48.710;9.024;2023-06-22T11:56:09;10.23;;;6.88;;
15667;SDS011;7934;48.710;9.024;2023-06-22T11:58:36;12.38;;;6.85;;
15667;SDS011;7934;48.710;9.024;2023-06-22T12:01:03;13.75;;;6.97;;
15667;SDS011;7934;48.710;9.024;2023-06-22T12:03:31;12.80;;;6.97;;
15667;SDS011;7934;48.710;9.024;2023-06-22T12:05:59;11.23;;;6.70;;
15667;SDS011;7934;48.710;9.024;2023-06-22T12:08:27;11.52;;;6.70;;
15667;SDS011;7934;48.710;9.024;2023-06-22T12:10:54;12.52;;;6.90;;
15667;SDS011;7934;48.710;9.024;2023-06-22T12:13:22;12.67;;;6.30;;
15667;SDS011;7934;48.710;9.024;2023-06-22T12:15:49;10.32;;;7.00;;
15667;SDS011;7934;48.710;9.024;2023-06-22T12:18:17;11.82;;;7.05;;
15667;SDS011;7934;48.710;9.024;2023-06-22T12:20:45;9.60;;;6.20;;
15667;SDS011;7934;48.710;9.024;2023-06-22T12:23:13;11.70;;;6.50;;
15667;SDS011;7934;48.710;9.024;2023-06-22T12:25:41;11.70;;;6.82;;
15667;SDS011;7934;48.710;9.024;2023-06-22T12:28:08;10.88;;;6.85;;
15667;SDS011;7934;48.710;9.024;2023-06-22T12:30:36;11.43;;;6.80;;
15667;SDS011;7934;48.710;9.024;2023-06-22T12:33:03;12.80;;;6.88;;
15667;SDS011;7934;48.710;9.024;2023-06-22T12:35:30;11.88;;;7.07;;
15667;SDS011;7934;48.710;9.024;2023-06-22T12:37:57;15.32;;;7.07;;
15667;SDS011;7934;48.710;9.024;2023-06-22T12:40:24;12.73;;;7.00;;
15667;SDS011;7934;48.710;9.024;2023-06-22T12:42:53;12.18;;;6.68;;
15667;SDS011;7934;48.710;9.024;2023-06-22T12:45:20;15.20;;;7.35;;
15667;SDS011;7934;48.710;9.024;2023-06-22T12:47:47;15.52;;;6.50;;
15667;SDS011;7934;48.710;9.024;2023-06-22T12:50:15;11.45;;;6.82;;
15667;SDS011;7934;48.710;9.024;2023-06-22T12:52:42;13.68;;;6.68;;
15667;SDS011;7934;48.710;9.024;2023-06-22T12:55:10;13.15;;;6.60;;
15667;SDS011;7934;48.710;9.024;2023-06-22T12:57:37;11.25;;;7.40;;
15667;SDS011;7934;48.710;9.024;2023-06-22T13:00:07;12.70;;;7.13;;
15667;SDS011;7934;48.710;9.024;2023-06-22T13:02:35;11.23;;;6.75;;
15667;SDS011;7934;48.710;9.024;2023-06-22T13:05:02;12.90;;;6.47;;
15667;SDS011;7934;48.710;9.024;2023-06-22T13:07:31;12.43;;;6.97;;
15667;SDS011;7934;48.710;9.024;2023-06-22T13:09:58;14.35;;;7.47;;
15667;SDS011;7934;48.710;9.024;2023-06-22T13:12:25;10.05;;;6.50;;
15667;SDS011;7934;48.710;9.024;2023-06-22T13:14:52;14.38;;;6.80;;
15667;SDS011;7934;48.710;9.024;2023-06-22T13:17:21;12.60;;;6.72;;
15667;SDS011;7934;48.710;9.024;2023-06-22T13:19:48;12.30;;;7.10;;
15667;SDS011;7934;48.710;9.024;2023-06-22T13:22:29;11.60;;;6.82;;
15667;SDS011;7934;48.710;9.024;2023-06-22T13:24:56;11.95;;;6.70;;
15667;SDS011;7934;48.710;9.024;2023-06-22T13:27:23;15.52;;;6.82;;
15667;SDS011;7934;48.710;9.024;2023-06-22T13:29:51;14.00;;;6.80;;
15667;SDS011;7934;48.710;9.024;2023-06-22T13:32:18;14.17;;;6.90;;
15667;SDS011;7934;48.710;9.024;2023-06-22T13:34:46;16.35;;;6.85;;
15667;SDS011;7934;48.710;9.024;2023-06-22T13:37:14;13.68;;;6.85;;
15667;SDS011;7934;48.710;9.024;2023-06-22T13:39:41;15.52;;;7.20;;
15667;SDS011;7934;48.710;9.024;2023-06-22T13:42:08;11.63;;;7.13;;
15667;SDS011;7934;48.710;9.024;2023-06-22T13:44:35;12.38;;;6.28;;
15667;SDS011;7934;48.710;9.024;2023-06-22T13:47:02;14.23;;;6.50;;
15667;SDS011;7934;48.710;9.024;2023-06-22T13:49:30;10.88;;;6.55;;
15667;SDS011;7934;48.710;9.024;2023-06-22T13:51:59;15.57;;;7.00;;
15667;SDS011;7934;48.710;9.024;2023-06-22T13:54:28;14.07;;;5.90;;
15667;SDS011;7934;48.710;9.024;2023-06-22T13:56:55;11.77;;;6.20;;
15667;SDS011;7934;48.710;9.024;2023-06-22T13:59:22;13.10;;;6.43;;
15667;SDS011;7934;48.710;9.024;2023-06-22T14:01:51;13.20;;;6.80;;
15667;SDS011;7934;48.710;9.024;2023-06-22T14:04:18;12.32;;;6.65;;
15667;SDS011;7934;48.710;9.024;2023-06-22T14:06:45;12.38;;;6.40;;
15667;SDS011;7934;48.710;9.024;2023-06-22T14:09:14;16.30;;;6.00;;
15667;SDS011;7934;48.710;9.024;2023-06-22T14:11:41;13.70;;;6.05;;
15667;SDS011;7934;48.710;9.024;2023-06-22T14:14:08;15.57;;;6.80;;
15667;SDS011;7934;48.710;9.024;2023-06-22T14:16:35;11.87;;;6.10;;
15667;SDS011;7934;48.710;9.024;2023-06-22T14:19:02;9.98;;;5.70;;
15667;SDS011;7934;48.710;9.024;2023-06-22T14:21:30;12.27;;;5.95;;
15667;SDS011;7934;48.710;9.024;2023-06-22T14:23:57;17.45;;;5.93;;
15667;SDS011;7934;48.710;9.024;2023-06-22T14:26:25;13.93;;;5.35;;
15667;SDS011;7934;48.710;9.024;2023-06-22T14:28:53;13.07;;;5.00;;
15667;SDS011;7934;48.710;9.024;2023-06-22T14:31:21;12.15;;;5.00;;
15667;SDS011;7934;48.710;9.024;2023-06-22T14:33:49;13.15;;;5.20;;
15667;SDS011;7934;48.710;9.024;2023-06-22T14:36:16;12.23;;;4.47;;
15667;SDS011;7934;48.710;9.024;2023-06-22T14:38:44;13.85;;;4.47;;
15667;SDS011;7934;48.710;9.024;2023-06-22T14:41:11;14.68;;;4.95;;
15667;SDS011;7934;48.710;9.024;2023-06-22T14:43:44;9.40;;;4.25;;
15667;SDS011;7934;48.710;9.024;2023-06-22T14:46:12;16.20;;;4.73;;
15667;SDS011;7934;48.710;9.024;2023-06-22T14:48:39;11.43;;;4.80;;
15667;SDS011;7934;48.710;9.024;2023-06-22T14:51:06;13.93;;;4.55;;
15667;SDS011;7934;48.710;9.024;2023-06-22T14:53:34;13.15;;;4.53;;